Latest Weather Observations for Stenhouse Bay

IDS60801

Issued at 10:31 pm CDT Monday 22 December 2014 (issued every 30 minutes, with the page automatically refreshed every 10 minutes)

About weather observations | Map of weather stations | Latest weather observations for SA | Other Formats
Station Details ID: 022049 Name: STENHOUSE BAY Lat: -35.28 Lon: 136.94 Height: 42.0 m
Data from the previous 72 hours. | See also: Recent months at Stenhouse Bay
Date/Time
CDT
Temp
°C
App
Temp
°C
Dew
Point
Rel
Hum
%
Delta-T
°C
Wind Press
QNH
hPa
Press
MSL
hPa
Rain
since 9 am
mm
Dir
 
Spd
km/h
Gust
km/h
Spd
kts
Gust
kts
22/10:30pm 17.4 15.3 16.1 92 0.8 S 22 28 12 15 1010.2 1010.1 11.8
22/10:00pm 17.4 15.9 16.3 93 0.7 S 19 24 10 13 1010.2 1010.1 11.8
22/09:30pm 17.5 16.1 16.5 94 0.6 S 19 22 10 12 1009.9 1009.7 11.8
22/09:00pm 17.8 17.0 17.2 96 0.4 SSW 17 24 9 13 1009.5 1009.3 11.8
22/08:30pm 17.6 17.1 16.8 95 0.5 SW 15 20 8 11 1009.3 1009.1 11.8
22/08:00pm 17.6 16.8 17.1 97 0.3 SW 17 20 9 11 1009.0 1008.8 11.8
22/07:30pm 17.5 16.7 17.0 97 0.3 SW 17 22 9 12 1008.7 1008.5 11.8
22/07:00pm 18.1 18.3 17.6 97 0.3 SW 13 17 7 9 1008.6 1008.4 11.8
22/06:30pm 18.1 18.6 17.5 96 0.4 SW 11 15 6 8 1008.4 1008.2 11.8
22/06:00pm 18.4 19.7 17.6 95 0.5 SSW 7 9 4 5 1008.1 1007.9 11.0
22/05:30pm 18.6 19.9 17.6 94 0.6 SW 7 9 4 5 1007.9 1007.7 10.4
22/05:00pm 18.7 20.1 17.9 95 0.5 SSW 7 13 4 7 1007.7 1007.5 10.4
22/04:30pm 18.3 19.8 17.7 96 0.4 ENE 6 9 3 5 1007.9 1007.7 10.4
22/04:00pm 18.2 17.7 17.7 97 0.3 NNE 17 22 9 12 1007.6 1007.4 10.0
22/03:30pm 18.1 16.9 17.6 97 0.3 NE 20 28 11 15 1007.1 1006.9 9.6
22/03:00pm 17.8 17.0 17.0 95 0.5 NE 17 24 9 13 1008.1 1007.9 8.0
22/02:30pm 17.8 17.3 16.8 94 0.6 E 15 19 8 10 1008.2 1008.0 6.2
22/02:00pm 17.7 17.2 16.9 95 0.5 SE 15 20 8 11 1008.5 1008.3 5.8
22/01:30pm 17.7 17.2 16.9 95 0.5 SSE 15 19 8 10 1009.4 1009.2 5.4
22/01:00pm 17.4 15.8 16.4 94 0.6 SSE 20 24 11 13 1009.7 1009.5 4.8
22/12:30pm 17.7 16.2 16.4 92 0.8 S 19 24 10 13 1010.4 1010.3 3.6
22/12:00pm 17.6 15.2 16.5 93 0.7 SSE 24 30 13 16 1009.9 1009.7 2.8
22/11:30am 18.1 16.5 16.6 91 0.9 S 20 22 11 12 1009.7 1009.5 1.8
22/11:00am 17.9 16.7 16.2 90 1.0 S 17 20 9 11 1009.7 1009.5 1.6
22/10:30am 17.9 17.6 16.4 91 0.9 ESE 13 15 7 8 1009.5 1009.3 1.2
22/10:00am 17.7 16.5 16.0 90 1.0 ESE 17 20 9 11 1009.3 1009.1 0.8
22/09:30am 17.9 17.5 15.3 85 1.5 SE 11 15 6 8 1009.3 1009.1 0.4
22/09:00am 18.6 20.0 15.3 81 1.9 SSE 2 4 1 2 1009.5 1009.3 0.6
22/08:30am 18.7 18.0 15.4 81 1.9 ESE 13 17 7 9 1008.6 1008.4 0.6
22/08:00am 18.5 17.0 15.2 81 1.9 SE 17 22 9 12 1007.8 1007.6 0.6
22/07:30am 18.1 15.9 14.8 81 1.9 SE 20 26 11 14 1007.8 1007.6 0.6
22/07:00am 18.0 14.5 14.5 80 2.0 SE 26 35 14 19 1007.2 1007.0 0.6
22/06:30am 17.9 14.0 14.4 80 2.0 SSE 28 35 15 19 1007.1 1006.9 0.6
22/06:00am 18.1 15.1 14.8 81 1.9 SSE 24 33 13 18 1007.2 1007.0 0.6
22/05:30am 18.5 16.5 15.4 82 1.8 SE 20 32 11 17 1006.6 1006.4 0.6
22/05:00am 18.4 15.1 14.9 80 2.0 ESE 26 35 14 19 1006.9 1006.7 0.6
22/04:30am 18.6 16.2 14.5 77 2.4 SE 20 24 11 13 1007.5 1007.3 0.6
22/04:00am 18.2 14.1 13.7 75 2.6 SE 28 37 15 20 1007.3 1007.1 0.6
22/03:58am 18.2 13.7 13.9 76 2.5 SE 30 39 16 21 1007.2 1007.0 0.6
22/03:30am 17.3 11.1 13.8 80 2.0 ESE 39 50 21 27 1006.8 1006.6 0.6
22/03:13am 16.9 12.0 14.2 84 1.5 ESE 33 48 18 26 1007.3 1007.1 0.6
22/03:00am 16.8 14.1 14.6 87 1.3 ESE 22 28 12 15 1009.0 1008.8 0.6
22/02:30am 16.9 14.7 14.4 85 1.4 SE 19 26 10 14 1009.6 1009.4 0.4
22/02:00am 18.2 13.8 12.9 71 3.0 SE 28 39 15 21 1009.2 1009.0 0.0
22/01:30am 18.2 14.1 12.6 70 3.1 ESE 26 33 14 18 1009.5 1009.3 0.0
22/01:00am 18.2 13.4 12.9 71 3.0 ESE 30 35 16 19 1009.6 1009.4 0.0
22/12:30am 18.0 14.9 13.3 74 2.7 SE 22 28 12 15 1010.5 1010.4 0.0
22/12:00am 17.8 13.3 13.7 77 2.3 SE 30 39 16 21 1010.6 1010.5 0.0
 
Date/Time
CDT
Temp
°C
App
Temp
°C
Dew
Point
Rel
Hum
%
Delta-T
°C
Wind Press
QNH
hPa
Press
MSL
hPa
Rain
since 9 am
mm
Dir
 
Spd
km/h
Gust
km/h
Spd
kts
Gust
kts
21/11:30pm 17.6 13.2 14.1 80 2.0 SSE 30 39 16 21 1011.2 1011.1 0.0
21/11:00pm 17.5 12.8 14.2 81 1.9 SSE 32 43 17 23 1011.2 1011.1 0.0
21/10:30pm 17.9 11.1 14.4 80 2.0 SSE 43 48 23 26 1011.2 1011.1 0.0
21/10:00pm 18.0 13.7 14.5 80 2.0 SSE 30 35 16 19 1012.6 1012.5 0.0
21/09:30pm 18.6 15.9 14.5 77 2.4 SSE 22 28 12 15 1013.0 1012.9 0.0
21/09:00pm 18.9 16.1 14.4 75 2.6 SSE 22 30 12 16 1012.0 1011.9 0.0
21/08:30pm 19.6 17.3 14.0 70 3.2 SE 19 22 10 12 1011.2 1011.1 0.0
21/08:00pm 20.0 16.9 14.6 71 3.2 ESE 24 30 13 16 1010.3 1010.2 0.0
21/07:30pm 20.3 17.9 14.4 69 3.4 SE 20 26 11 14 1010.1 1010.0 0.0
21/07:00pm 20.7 18.9 14.4 67 3.7 SE 17 22 9 12 1010.2 1010.1 0.0
21/06:30pm 21.3 19.5 15.4 69 3.5 SE 19 28 10 15 1010.1 1010.0 0.0
21/06:00pm 21.4 18.6 15.3 68 3.6 SE 24 28 13 15 1009.6 1009.4 0.0
21/05:30pm 21.8 19.2 15.9 69 3.6 SE 24 30 13 16 1009.1 1008.9 0.0
21/05:00pm 22.3 19.2 15.6 66 4.0 ESE 26 33 14 18 1009.2 1009.0 0.0
21/04:30pm 23.2 19.7 15.5 62 4.6 ESE 28 35 15 19 1009.3 1009.1 0.0
21/04:00pm 23.7 20.8 16.0 62 4.7 ESE 26 33 14 18 1009.7 1009.5 0.0
21/03:30pm 24.0 21.4 15.8 60 5.0 ESE 24 32 13 17 1010.0 1009.8 0.0
21/03:00pm 25.8 23.5 16.6 56 5.7 ESE 24 32 13 17 1010.5 1010.4 0.0
21/02:30pm 25.9 24.5 17.0 58 5.5 ESE 20 28 11 15 1010.8 1010.7 0.0
21/02:00pm 25.0 24.2 17.2 62 4.9 E 17 22 9 12 1011.6 1011.5 0.0
21/01:30pm 24.7 24.5 17.7 65 4.4 E 15 20 8 11 1011.8 1011.7 0.0
21/01:00pm 24.6 24.6 17.1 63 4.7 E 13 17 7 9 1012.0 1011.9 0.0
21/12:30pm 24.1 23.7 15.1 57 5.4 E 11 15 6 8 1012.1 1012.0 0.0
21/12:00pm 24.4 23.8 15.6 58 5.3 E 13 17 7 9 1012.0 1011.9 0.0
21/11:30am 25.9 24.9 14.7 50 6.7 ESE 13 19 7 10 1012.1 1012.0 0.0
21/11:00am 24.3 23.5 15.2 57 5.5 SSE 13 19 7 10 1011.9 1011.8 0.0
21/10:30am 22.8 21.4 15.6 64 4.3 SSE 17 20 9 11 1011.9 1011.8 0.0
21/10:00am 22.3 21.1 16.1 68 3.8 SSE 17 20 9 11 1012.0 1011.9 0.0
21/09:30am 21.5 21.4 16.9 75 2.8 SSE 13 15 7 8 1011.8 1011.7 0.0
21/09:00am 21.2 21.3 16.6 75 2.8 SSE 11 13 6 7 1011.4 1011.3 0.0
21/08:30am 21.6 22.7 17.0 75 2.8 ESE 7 9 4 5 1011.2 1011.1 0.0
21/08:00am 20.9 21.1 16.7 77 2.6 ENE 11 15 6 8 1010.7 1010.6 0.0
21/07:30am 20.1 19.4 16.5 80 2.2 ENE 15 19 8 10 1010.3 1010.2 0.0
21/07:00am 19.2 18.0 16.1 82 1.9 ENE 17 20 9 11 1010.1 1010.0 0.0
21/06:30am 18.5 17.7 16.1 86 1.4 E 15 20 8 11 1010.1 1010.0 0.0
21/06:00am 18.2 17.4 16.0 87 1.3 E 15 19 8 10 1010.3 1010.2 0.0
21/05:30am 18.1 16.9 16.1 88 1.2 E 17 22 9 12 1010.4 1010.3 0.0
21/05:00am 17.9 16.0 15.7 87 1.3 E 20 24 11 13 1010.6 1010.5 0.0
21/04:30am 17.8 16.2 16.0 89 1.1 E 19 22 10 12 1010.7 1010.6 0.0
21/04:00am 17.5 15.8 15.8 90 1.0 ESE 19 22 10 12 1010.8 1010.7 0.0
21/03:30am 17.8 15.8 15.6 87 1.3 E 20 24 11 13 1011.1 1011.0 0.0
21/03:00am 17.7 15.7 15.5 87 1.3 E 20 24 11 13 1011.5 1011.4 0.0
21/02:30am 17.7 15.9 15.5 87 1.3 ESE 19 22 10 12 1011.8 1011.7 0.0
21/02:00am 17.7 15.7 15.5 87 1.3 ESE 20 28 11 15 1012.0 1011.9 0.0
21/01:30am 17.7 14.1 15.3 86 1.4 ESE 28 35 15 19 1012.0 1011.9 0.0
21/01:00am 17.8 14.5 15.1 84 1.6 E 26 35 14 19 1012.5 1012.4 0.0
21/12:30am 17.6 15.3 14.7 83 1.7 ESE 20 26 11 14 1013.1 1013.0 0.0
21/12:00am 17.5 14.7 14.2 81 1.9 ESE 22 28 12 15 1013.0 1012.9 0.0
 
Date/Time
CDT
Temp
°C
App
Temp
°C
Dew
Point
Rel
Hum
%
Delta-T
°C
Wind Press
QNH
hPa
Press
MSL
hPa
Rain
since 9 am
mm
Dir
 
Spd
km/h
Gust
km/h
Spd
kts
Gust
kts
20/11:30pm 17.5 14.7 14.2 81 1.9 ESE 22 28 12 15 1013.3 1013.2 0.0
20/11:00pm 17.6 13.8 13.7 78 2.2 ESE 26 32 14 17 1013.4 1013.3 0.0
20/10:30pm 17.8 13.5 13.3 75 2.5 ESE 28 33 15 18 1013.7 1013.6 0.0
20/10:00pm 18.0 13.6 12.9 72 2.9 ESE 28 33 15 18 1014.0 1013.9 0.0
20/09:30pm 18.6 14.2 13.0 70 3.2 ESE 28 35 15 19 1014.0 1013.9 0.0
20/09:00pm 18.8 15.5 15.1 79 2.2 ESE 26 33 14 18 1014.1 1014.0 0.0
20/08:30pm 19.0 16.2 15.3 79 2.2 E 24 32 13 17 1014.2 1014.1 0.0
20/08:00pm 19.3 16.4 15.2 77 2.4 E 24 32 13 17 1014.1 1014.0 0.0
20/07:30pm 20.1 18.2 15.1 73 2.9 E 19 24 10 13 1014.3 1014.2 0.0
20/07:00pm 21.2 19.9 14.8 67 3.8 ESE 15 19 8 10 1014.4 1014.3 0.0
20/06:30pm 21.5 20.0 14.2 63 4.3 ESE 15 19 8 10 1014.1 1014.0 0.0
20/06:00pm 22.0 20.8 13.9 60 4.7 ESE 13 19 7 10 1014.2 1014.1 0.0
20/05:30pm 22.1 20.1 14.0 60 4.7 ESE 17 22 9 12 1014.2 1014.1 0.0
20/05:00pm 22.4 20.3 13.7 58 5.1 ESE 17 20 9 11 1014.7 1014.6 0.0
20/04:30pm 21.9 20.0 13.0 57 5.1 ESE 15 17 8 9 1015.3 1015.2 0.0
20/04:00pm 21.8 19.7 12.4 55 5.3 E 15 19 8 10 1015.5 1015.4 0.0
20/03:30pm 21.7 19.4 11.7 53 5.6 E 15 19 8 10 1015.7 1015.6 0.0
20/03:00pm 21.9 19.2 11.6 52 5.8 E 17 20 9 11 1016.2 1016.1 0.0
20/02:30pm 22.0 19.9 12.3 54 5.5 E 15 20 8 11 1016.7 1016.6 0.0
20/02:00pm 21.8 19.6 12.1 54 5.5 E 15 20 8 11 1017.1 1017.0 0.0
20/01:30pm 22.0 19.7 13.1 57 5.1 E 17 20 9 11 1017.6 1017.5 0.0
20/01:00pm 21.1 18.7 12.5 58 4.9 E 17 20 9 11 1018.1 1018.0 0.0
20/12:30pm 20.5 18.3 12.2 59 4.6 E 15 19 8 10 1018.5 1018.4 0.0
20/12:00pm 20.6 18.4 12.1 58 4.8 E 15 19 8 10 1018.9 1018.8 0.0
20/11:30am 20.5 18.3 12.0 58 4.7 ESE 15 20 8 11 1019.0 1018.9 0.0
20/11:00am 20.7 18.0 11.6 56 5.1 ESE 17 20 9 11 1019.1 1019.0 0.0
20/10:30am 20.2 17.6 11.9 59 4.6 E 17 20 9 11 1019.2 1019.1 0.0
20/10:00am 20.2 18.4 12.2 60 4.5 ESE 13 19 7 10 1019.6 1019.5 0.0
20/09:30am 19.6 17.7 11.9 61 4.3 E 13 19 7 10 1019.9 1019.8 0.0
20/09:00am 19.5 17.7 12.0 62 4.2 E 13 17 7 9 1019.8 1019.7 0.0
20/08:30am 18.4 16.8 11.7 65 3.7 E 11 15 6 8 1019.8 1019.7 0.0
20/08:00am 18.1 16.5 11.7 66 3.5 E 11 17 6 9 1019.4 1019.3 0.0
20/07:30am 17.5 15.2 11.8 69 3.1 ESE 15 19 8 10 1018.9 1018.8 0.0
20/07:00am 15.6 15.2 11.2 75 2.4 NE 4 11 2 6 1019.0 1018.9 0.0
20/06:30am 13.8 14.0 10.4 80 1.8 CALM 0 2 0 1 1019.0 1018.9 0.0
20/06:00am 14.3 14.1 10.3 77 2.1 NNW 2 9 1 5 1019.0 1018.9 0.0
20/05:30am 15.6 13.6 11.4 76 2.3 E 13 17 7 9 1018.8 1018.7 0.0
20/05:00am 15.5 13.4 11.3 76 2.3 E 13 19 7 10 1018.6 1018.5 0.0
20/04:30am 15.3 12.4 11.1 76 2.2 ESE 17 20 9 11 1018.1 1018.0 0.0
20/04:00am 15.4 12.9 11.2 76 2.2 ESE 15 20 8 11 1018.3 1018.2 0.0
20/03:30am 15.3 12.0 10.9 75 2.3 ESE 19 24 10 13 1018.1 1018.0 0.0
20/03:00am 15.4 11.9 10.8 74 2.4 ESE 20 24 11 13 1018.4 1018.3 0.0
20/02:30am 15.4 12.2 11.2 76 2.2 ESE 19 24 10 13 1018.7 1018.6 0.0
20/02:00am 15.4 11.9 10.8 74 2.4 SE 20 26 11 14 1019.0 1018.9 0.0
20/01:30am 15.5 12.2 10.9 74 2.4 SE 19 22 10 12 1019.6 1019.5 0.0
20/01:00am 15.5 12.1 10.7 73 2.5 SE 19 24 10 13 1020.1 1020.0 0.0
20/12:30am 15.6 12.6 10.8 73 2.5 SE 17 22 9 12 1020.4 1020.3 0.0
20/12:00am 15.7 12.7 10.7 72 2.6 SE 17 26 9 14 1020.6 1020.5 0.0
 
Date/Time
CDT
Temp
°C
App
Temp
°C
Dew
Point
Rel
Hum
%
Delta-T
°C
Wind Press
QNH
hPa
Press
MSL
hPa
Rain
since 9 am
mm
Dir
 
Spd
km/h
Gust
km/h
Spd
kts
Gust
kts
19/11:30pm 15.8 12.7 10.3 70 2.9 SSE 17 24 9 13 1020.7 1020.6 0.0
19/11:00pm 16.1 12.7 10.4 69 3.0 SE 19 24 10 13 1021.0 1020.9 0.0

Other Formats:

Comma delimited format used in spreadsheet applications
http://www.bom.gov.au/fwo/IDS60801/IDS60801.95806.axf

JavaScript Object Notation format (JSON) in row-major order
http://www.bom.gov.au/fwo/IDS60801/IDS60801.95806.json